createdAt,value
2022-09-06T00:01:38.829Z,2.67
2022-09-06T00:06:30.586Z,2.67
2022-09-06T00:11:22.591Z,4.07
2022-09-06T00:16:21.038Z,2.42
2022-09-06T00:21:18.004Z,2.40
2022-09-06T00:26:09.694Z,3.70
2022-09-06T00:31:12.682Z,1.60
2022-09-06T00:36:04.982Z,3.05
2022-09-06T00:40:57.353Z,5.18
2022-09-06T00:45:49.397Z,2.00
2022-09-06T00:50:43.044Z,2.63
2022-09-06T00:55:34.729Z,1.63
2022-09-06T01:00:26.411Z,2.97
2022-09-06T01:05:18.671Z,1.92
2022-09-06T01:10:22.517Z,2.20
2022-09-06T01:15:35.154Z,1.65
2022-09-06T01:21:04.881Z,1.80
2022-09-06T01:26:25.261Z,1.15
2022-09-06T01:31:26.903Z,2.85
2022-09-06T01:36:24.317Z,1.90
2022-09-06T01:41:15.945Z,1.50
2022-09-06T01:46:33.394Z,2.80
2022-09-06T01:51:47.861Z,0.98
2022-09-06T01:56:51.875Z,1.60
2022-09-06T02:02:01.648Z,2.55
2022-09-06T02:07:03.457Z,1.02
2022-09-06T02:11:59.729Z,1.83
2022-09-06T02:16:54.027Z,2.25
2022-09-06T02:21:47.711Z,2.25
2022-09-06T02:26:43.722Z,2.55
2022-09-06T02:31:42.692Z,2.53
2022-09-06T02:36:37.362Z,1.52
2022-09-06T02:41:31.092Z,1.55
2022-09-06T02:46:24.500Z,2.47
2022-09-06T02:51:16.637Z,5.03
2022-09-06T02:56:08.454Z,1.00
2022-09-06T03:01:00.248Z,1.67
2022-09-06T03:05:53.480Z,1.75
2022-09-06T03:10:50.093Z,1.08
2022-09-06T03:15:41.802Z,1.90
2022-09-06T03:20:37.001Z,2.65
2022-09-06T03:25:29.043Z,1.77
2022-09-06T03:30:20.669Z,1.50
2022-09-06T03:35:12.258Z,2.20
2022-09-06T03:40:05.265Z,2.33
2022-09-06T03:44:56.988Z,2.50
2022-09-06T03:49:48.657Z,4.25
2022-09-06T03:54:40.832Z,3.53
2022-09-06T03:59:32.690Z,3.60
2022-09-06T04:04:24.577Z,3.55
2022-09-06T04:09:16.499Z,7.20
2022-09-06T04:14:08.189Z,5.88
2022-09-06T04:19:01.952Z,6.43
2022-09-06T04:23:53.682Z,5.10
2022-09-06T04:28:45.373Z,7.25
2022-09-06T04:33:38.301Z,8.77
2022-09-06T04:38:31.450Z,8.60
2022-09-06T04:43:23.615Z,8.27
2022-09-06T04:48:15.768Z,11.55
2022-09-06T04:53:08.515Z,16.75
2022-09-06T04:58:01.446Z,14.25
2022-09-06T05:02:53.066Z,11.90
2022-09-06T05:07:44.876Z,9.10
2022-09-06T05:12:38.840Z,11.45
2022-09-06T05:17:33.854Z,9.75
2022-09-06T05:22:25.448Z,11.80
2022-09-06T05:27:17.039Z,20.52
2022-09-06T05:32:08.709Z,14.05
2022-09-06T05:37:00.462Z,13.45
2022-09-06T05:41:52.146Z,14.30
2022-09-06T05:46:45.362Z,13.70
2022-09-06T05:51:37.033Z,16.63
2022-09-06T05:56:28.977Z,14.45
2022-09-06T06:01:27.550Z,15.32
2022-09-06T06:06:20.201Z,15.15
2022-09-06T06:11:12.258Z,15.57
2022-09-06T06:16:04.086Z,17.20
2022-09-06T06:21:08.608Z,16.45
2022-09-06T06:26:00.225Z,17.33
2022-09-06T06:30:51.846Z,16.90
2022-09-06T06:35:57.488Z,20.30
2022-09-06T06:40:49.108Z,16.30
2022-09-06T06:45:40.766Z,16.45
2022-09-06T06:50:32.422Z,21.40
2022-09-06T06:55:24.012Z,23.02
2022-09-06T07:00:15.808Z,18.77
2022-09-06T07:10:35.573Z,14.80
2022-09-06T07:15:27.438Z,19.45
2022-09-06T07:20:20.564Z,21.85
2022-09-06T07:25:16.417Z,15.93
2022-09-06T07:30:11.446Z,18.23
2022-09-06T07:35:03.093Z,16.17
2022-09-06T07:39:54.759Z,17.88
2022-09-06T07:44:46.511Z,17.13
2022-09-06T07:49:38.165Z,19.08
2022-09-06T07:54:31.007Z,16.92
2022-09-06T07:59:23.176Z,18.15
2022-09-06T08:04:14.908Z,16.05
2022-09-06T08:09:08.916Z,15.70
2022-09-06T08:14:02.339Z,12.77
2022-09-06T08:18:56.178Z,12.02
2022-09-06T08:23:53.118Z,11.60
2022-09-06T08:28:45.062Z,8.97
2022-09-06T08:33:37.706Z,8.77
2022-09-06T08:38:29.735Z,11.95
2022-09-06T08:43:22.982Z,11.27
2022-09-06T08:48:15.212Z,10.43
2022-09-06T08:53:17.963Z,10.95
2022-09-06T08:58:20.523Z,10.73
2022-09-06T09:03:17.202Z,9.13
2022-09-06T09:08:29.993Z,8.27
2022-09-06T09:13:32.409Z,8.20
2022-09-06T09:18:30.411Z,5.53
2022-09-06T09:23:22.076Z,6.25
2022-09-06T09:28:19.034Z,11.40
2022-09-06T09:33:25.873Z,6.33
2022-09-06T09:38:30.000Z,5.40
2022-09-06T09:43:24.804Z,10.02
2022-09-06T09:48:24.909Z,6.10
2022-09-06T09:53:21.582Z,9.10
2022-09-06T09:58:34.288Z,6.55
2022-09-06T10:03:29.749Z,3.28
2022-09-06T10:08:25.114Z,10.63
2022-09-06T10:13:20.223Z,4.40
2022-09-06T10:18:20.682Z,6.03
2022-09-06T10:29:04.218Z,3.22
2022-09-06T10:34:17.576Z,4.32
2022-09-06T10:39:31.364Z,5.55
2022-09-06T10:44:52.139Z,5.90
2022-09-06T10:49:56.307Z,3.97
2022-09-06T10:54:48.603Z,7.25
2022-09-06T10:59:51.879Z,4.40
2022-09-06T11:10:07.859Z,3.30
2022-09-06T11:15:03.158Z,3.60
2022-09-06T11:20:29.818Z,6.32
2022-09-06T11:25:52.428Z,5.30
2022-09-06T11:30:50.570Z,3.40
2022-09-06T11:35:42.888Z,6.90
2022-09-06T11:40:41.656Z,4.88
2022-09-06T11:45:45.101Z,5.05
2022-09-06T11:50:59.537Z,4.80
2022-09-06T11:56:11.777Z,6.32
2022-09-06T12:01:12.530Z,5.18
2022-09-06T12:06:25.063Z,6.88
2022-09-06T12:11:39.251Z,6.20
2022-09-06T12:16:55.885Z,5.72
2022-09-06T12:21:47.804Z,5.85
2022-09-06T12:27:08.279Z,8.45
2022-09-06T12:32:05.859Z,6.68
2022-09-06T12:37:04.542Z,9.52
2022-09-06T12:42:00.405Z,5.05
2022-09-06T12:46:52.306Z,6.57
2022-09-06T12:51:44.373Z,7.55
2022-09-06T12:56:36.121Z,6.72
2022-09-06T13:01:33.807Z,7.22
2022-09-06T13:06:27.494Z,8.77
2022-09-06T13:11:28.461Z,8.23
2022-09-06T13:16:26.929Z,4.90
2022-09-06T13:21:32.933Z,4.20
2022-09-06T13:26:40.498Z,6.28
2022-09-06T13:31:32.859Z,5.50
2022-09-06T13:36:32.331Z,4.82
2022-09-06T13:41:27.146Z,3.50
2022-09-06T13:46:18.850Z,3.58
2022-09-06T13:51:10.638Z,4.47
2022-09-06T13:56:02.972Z,7.43
2022-09-06T14:00:54.846Z,4.85
2022-09-06T14:05:47.478Z,4.38
2022-09-06T14:10:39.394Z,5.00
2022-09-06T14:15:31.119Z,3.88
2022-09-06T14:20:22.898Z,3.90
2022-09-06T14:25:14.577Z,4.95
2022-09-06T14:30:06.710Z,4.05
2022-09-06T14:34:58.769Z,3.50
2022-09-06T14:40:27.676Z,5.43
2022-09-06T14:45:20.033Z,5.20
2022-09-06T14:50:12.229Z,3.83
2022-09-06T14:55:04.254Z,4.65
2022-09-06T14:59:56.329Z,8.60
2022-09-06T15:04:48.305Z,3.50
2022-09-06T15:09:40.241Z,3.40
2022-09-06T15:14:32.002Z,1.88
2022-09-06T15:19:25.114Z,3.42
2022-09-06T15:24:17.432Z,4.72
2022-09-06T15:29:11.868Z,2.80
2022-09-06T15:34:03.705Z,4.38
2022-09-06T15:38:59.981Z,2.08
2022-09-06T15:43:54.945Z,2.05
2022-09-06T15:48:49.166Z,4.47
2022-09-06T15:53:41.414Z,4.07
2022-09-06T15:58:33.556Z,4.22
2022-09-06T16:03:25.369Z,4.82
2022-09-06T16:08:17.439Z,5.65
2022-09-06T16:13:09.114Z,3.60
2022-09-06T16:18:05.516Z,4.03
2022-09-06T16:22:58.174Z,3.53
2022-09-06T16:27:49.991Z,5.75
2022-09-06T16:32:41.879Z,3.38
2022-09-06T16:37:33.717Z,3.25
2022-09-06T16:42:25.586Z,5.80
2022-09-06T16:47:17.380Z,3.40
2022-09-06T16:52:09.190Z,2.67
2022-09-06T16:57:01.744Z,4.93
2022-09-06T17:01:56.162Z,5.88
2022-09-06T17:06:48.081Z,4.50
2022-09-06T17:11:40.365Z,5.53
2022-09-06T17:16:50.742Z,4.50
2022-09-06T17:21:42.739Z,3.40
2022-09-06T17:26:36.652Z,6.93
2022-09-06T17:31:28.731Z,6.65
2022-09-06T17:36:32.613Z,10.25
2022-09-06T17:41:28.059Z,10.50
2022-09-06T17:46:24.205Z,3.88
2022-09-06T17:51:18.985Z,4.50
2022-09-06T17:56:13.373Z,2.95
2022-09-06T18:01:10.531Z,6.38
2022-09-06T18:06:07.970Z,3.67
2022-09-06T18:10:59.734Z,6.57
2022-09-06T18:15:51.383Z,2.50
2022-09-06T18:20:43.101Z,5.10
2022-09-06T18:25:34.878Z,4.50
2022-09-06T18:30:26.566Z,3.97
2022-09-06T18:35:18.293Z,4.07
2022-09-06T18:40:10.372Z,2.95
2022-09-06T18:45:02.154Z,3.33
2022-09-06T18:49:53.803Z,5.15
2022-09-06T18:54:45.449Z,5.85
2022-09-06T18:59:37.350Z,4.85
2022-09-06T19:04:29.158Z,2.22
2022-09-06T19:09:20.854Z,5.72
2022-09-06T19:14:13.760Z,4.97
2022-09-06T19:19:08.452Z,3.53
2022-09-06T19:24:06.191Z,7.53
2022-09-06T19:29:00.416Z,3.67
2022-09-06T19:33:52.223Z,4.65
2022-09-06T19:39:02.677Z,3.67
2022-09-06T19:43:57.014Z,5.65
2022-09-06T19:48:51.314Z,7.25
2022-09-06T19:53:46.985Z,4.55
2022-09-06T19:58:39.851Z,9.15
2022-09-06T20:03:32.754Z,4.93
2022-09-06T20:08:25.058Z,4.97
2022-09-06T20:13:16.765Z,4.32
2022-09-06T20:18:08.419Z,3.80
2022-09-06T20:23:00.078Z,5.78
2022-09-06T20:27:51.751Z,3.90
2022-09-06T20:32:43.442Z,6.45
2022-09-06T20:37:37.598Z,7.13
2022-09-06T20:42:29.256Z,7.97
2022-09-06T20:47:21.230Z,5.72
2022-09-06T20:52:12.870Z,4.22
2022-09-06T20:57:04.753Z,4.15
2022-09-06T21:01:56.634Z,7.57
2022-09-06T21:06:51.010Z,7.13
2022-09-06T21:11:43.391Z,5.65
2022-09-06T21:16:36.588Z,7.53
2022-09-06T21:21:30.106Z,7.35
2022-09-06T21:26:22.601Z,5.18
2022-09-06T21:31:22.051Z,7.50
2022-09-06T21:36:16.886Z,6.10
2022-09-06T21:41:10.317Z,6.07
2022-09-06T21:46:23.027Z,5.90
2022-09-06T21:51:17.484Z,6.10
2022-09-06T21:56:09.346Z,9.68
2022-09-06T22:01:02.238Z,8.88
2022-09-06T22:05:55.199Z,4.35
2022-09-06T22:10:48.749Z,7.65
2022-09-06T22:15:40.491Z,6.20
2022-09-06T22:20:32.289Z,5.18
2022-09-06T22:25:23.932Z,3.97
2022-09-06T22:30:15.633Z,7.68
2022-09-06T22:35:07.921Z,5.20
2022-09-06T22:40:00.954Z,10.05
2022-09-06T22:44:53.341Z,5.20
2022-09-06T22:49:44.989Z,4.05
2022-09-06T22:54:38.150Z,8.98
2022-09-06T22:59:29.800Z,8.68
2022-09-06T23:04:21.632Z,8.65
2022-09-06T23:09:13.441Z,7.13
2022-09-06T23:14:05.244Z,6.60
2022-09-06T23:18:56.893Z,7.75
2022-09-06T23:23:50.640Z,4.40
2022-09-06T23:28:42.652Z,6.22
2022-09-06T23:33:36.259Z,6.68
2022-09-06T23:38:28.217Z,6.85
2022-09-06T23:43:20.775Z,9.75
2022-09-06T23:48:12.447Z,6.65
2022-09-06T23:53:04.071Z,5.22
2022-09-06T23:57:55.680Z,7.07
